Aérodrome :
LOGIN :

S'inscrire | Disclaimer

   EN    FR    IT 

 










Légende :    VFR   VFR Marginal   IFR   IFR Intensif   IFR Très Intensif
Visi : 
Plafond : 
>= 8 km
>= 3000ft
5 à 8 km
1000 à 3000 ft
1500m à 5 km
500 à 1000 ft
800 à 1500m
200 à 500 ft
< 800m
< 200 ft
Symboles :   Orages  Brouillard  Fortes neiges  Fortes précipitations  Vent > 20 kt
SIGMETs :   Divers  Orages  Givrage  Turbulence  Onde Orograph.  Cendres Volcan.







- Altitude de l'aérodrome : 1768 ft


LEHC - Huesca Pirineos

DERNIER METAR :
  • 291730Z AUTO 12006KT 080V170 9999 BKN044 OVC050 13/07 Q1012

METARs EXPIRÉS :
  • 291700Z 12006KT 080V150 9999 OVC043 13/07 Q1012
  • 291630Z 13009KT 100V170 9999 OVC040 13/07 Q1012
  • 291600Z 08007KT 050V130 9999 OVC042 13/06 Q1012
  • 291530Z 09005KT 050V160 9999 OVC042 13/06 Q1012
  • 291500Z 09007KT 060V130 9999 BKN040 OVC060 13/06 Q1013 RERA

TAF TAF LEHC
Valide du 29 à 09h jusqu'au 30 à 09h UTC


290800Z 2909/3009 11010KT 9999 SCT040 TX15/2913Z TN08/3006Z
PROB30
TEMPO 2916/3003 4000 SHRA BKN030 SCT040TCU
Pas de NOTAMs connus pour ce terrain.
4 SIGMETs publiés pour la FIR Madrid (LECM) :
 
Annulation du SIGMET 3 
LECM SIGMET 6 VALID 291645/291730 LEVA
LECM MADRID FIR/UIR CNL SIGMET 3 VALID 291546/291730=
Orages noyés dans la masse
LECM SIGMET 5 VALID 291644/291830 LEVA
LECM MADRID FIR/UIR EMBD TS OBS AT 1644Z WI N3930 W00540 - N3830 W00540 - N39 W00230 - N3950 W00240 TOP FL250 MOV NE 10KT NC=
SIGMET 3  ANNULÉ :
Orages noyés dans la masse
LECM SIGMET 3 VALID 291546/291730 LEVA
LECM MADRID FIR/UIR EMBD TS OBS AT 1546Z WI N4130 W005 - N4230 W00350 - N4210 W00310 - N4050 W00410 TOP FL250 MOV NE 10KT NC=
Orages noyés dans la masse
LECM SIGMET 2 VALID 291542/291730 LEVA
LECM MADRID FIR/UIR EMBD TS OBS AT 1542Z WI N3810 W004 - N3730 W004 - N3740 W00220 - N39 W00210 TOP FL250 MOV NE 10KT NC=



MET'MAP, la Météo Aéronautique d'un coup d'oeil ! - Copyright ORBIFLY Décembre 2007 - Disclaimer

ORBIFLY MET'MAP TEAM :

Programmation & Développement : Alexandra Zaïnal
Conception & Développement : Baudouin d'Aumeries
Co-Programmation & Développement : Marc-Olivier Méhu
Soutien technique & logistique : Manuel Goepfert

Contact : metmap@orbifly.com




SOURCES & CREDITS :

   NOAA